createdAt,value
2019-03-08T08:20:05.328Z,21.22
2019-03-08T08:20:47.260Z,21.23
2019-03-08T08:21:19.303Z,21.27
2019-03-08T08:21:52.316Z,21.25
2019-03-08T08:22:24.312Z,21.3
2019-03-08T08:22:56.313Z,21.27
2019-03-08T08:24:47.889Z,21.33
2019-03-08T08:25:20.054Z,21.31
2019-03-08T08:25:52.087Z,21.37
2019-03-08T08:26:25.287Z,21.37
2019-03-08T08:26:57.340Z,21.34
2019-03-08T08:27:29.422Z,21.38
2019-03-08T08:28:01.403Z,21.37
2019-03-08T08:28:33.463Z,21.46
2019-03-08T08:29:05.497Z,21.41
2019-03-08T08:29:37.503Z,21.52
2019-03-08T08:30:09.477Z,21.45
2019-03-08T08:30:41.451Z,21.45
2019-03-08T08:31:13.482Z,21.49
2019-03-08T08:31:45.478Z,21.55
2019-03-08T08:32:17.558Z,21.56
2019-03-08T08:34:08.999Z,21.62
2019-03-08T08:34:40.985Z,21.62
2019-03-08T08:35:13.024Z,21.56
2019-03-08T08:35:45.058Z,21.64
2019-03-08T08:36:17.083Z,21.66
2019-03-08T08:36:49.109Z,21.66
2019-03-08T08:37:21.079Z,21.64
2019-03-08T08:37:53.981Z,21.64
2019-03-08T08:38:25.983Z,21.71
2019-03-08T08:38:58.901Z,21.71
2019-03-08T08:39:30.946Z,21.74
2019-03-08T08:42:41.983Z,21.77
2019-03-08T08:43:14.024Z,21.83
2019-03-08T08:43:46.071Z,21.85
2019-03-08T08:44:18.135Z,21.83
2019-03-08T08:44:50.145Z,21.8
2019-03-08T08:45:24.349Z,21.82
2019-03-08T08:47:15.673Z,21.82
2019-03-08T08:47:47.669Z,21.9
2019-03-08T08:48:19.673Z,21.85
2019-03-08T08:48:51.688Z,21.85
2019-03-08T08:50:42.999Z,21.9
2019-03-08T08:51:15.008Z,21.9
2019-03-08T08:51:46.998Z,21.93
2019-03-08T08:52:19.020Z,21.92
2019-03-08T08:52:51.073Z,21.92
2019-03-08T08:53:23.099Z,21.9
2019-03-08T08:53:57.413Z,21.94
2019-03-08T08:54:29.424Z,21.93
2019-03-08T08:55:02.160Z,21.94
2019-03-08T08:55:34.173Z,21.96
2019-03-08T08:56:07.208Z,21.99
2019-03-08T08:56:39.208Z,21.89
2019-03-08T08:58:30.696Z,21.9
2019-03-08T09:00:22.012Z,21.99
2019-03-08T09:00:54.089Z,22.02
2019-03-08T09:01:26.111Z,22.05
2019-03-08T09:03:17.408Z,21.99
2019-03-08T09:03:49.470Z,21.97
2019-03-08T09:04:21.542Z,21.96
2019-03-08T09:06:13.407Z,22.02
2019-03-08T09:06:45.410Z,22
2019-03-08T09:07:17.393Z,22.04
2019-03-08T09:07:49.414Z,22.08
2019-03-08T09:09:41.240Z,22.12
2019-03-08T09:11:32.509Z,22.09
2019-03-08T09:12:04.528Z,22.11
2019-03-08T09:12:36.557Z,22.16
2019-03-08T09:13:08.598Z,22.2
2019-03-08T09:13:40.611Z,22.02
2019-03-08T09:14:12.597Z,22.22
2019-03-08T09:14:44.675Z,22.2
2019-03-08T09:15:18.684Z,22.24
2019-03-08T09:15:50.699Z,22.27
2019-03-08T09:16:22.703Z,22.22
2019-03-08T09:16:54.736Z,22.16
2019-03-08T09:18:46.194Z,22.27
2019-03-08T09:19:18.220Z,22.29
2019-03-08T09:19:50.225Z,22.3
2019-03-08T09:23:01.512Z,22.41
2019-03-08T09:23:34.481Z,22.48
2019-03-08T09:24:06.595Z,22.46
2019-03-08T09:24:39.563Z,22.51
2019-03-08T09:25:14.652Z,22.49
2019-03-08T09:25:47.196Z,22.54
2019-03-08T09:26:19.259Z,22.57
2019-03-08T09:26:51.313Z,22.66
2019-03-08T09:27:47.698Z,22.6
2019-03-08T09:28:19.799Z,22.57
2019-03-08T09:28:51.814Z,22.66
2019-03-08T09:29:24.530Z,22.73
2019-03-08T09:31:16.678Z,22.71
2019-03-08T09:31:51.451Z,22.84
2019-03-08T09:32:25.030Z,22.79
2019-03-08T09:33:00.186Z,22.88
2019-03-08T09:33:34.427Z,22.96
2019-03-08T09:34:08.256Z,22.89
2019-03-08T09:34:42.284Z,23.03
2019-03-08T09:35:15.779Z,23.04
2019-03-08T09:35:48.830Z,22.92
2019-03-08T09:36:22.030Z,23.03
2019-03-08T09:36:56.965Z,23.07
2019-03-08T09:37:30.963Z,23.07
2019-03-08T09:38:04.068Z,23.06
2019-03-08T09:38:37.981Z,23.15
2019-03-08T09:39:10.561Z,23.1
2019-03-08T09:39:43.851Z,23.06
2019-03-08T09:40:17.286Z,23
2019-03-08T09:40:49.543Z,23.01
2019-03-08T09:41:23.079Z,22.99
2019-03-08T09:41:56.604Z,23.09
2019-03-08T09:43:48.685Z,23.14
2019-03-08T09:44:20.755Z,23.04
2019-03-08T09:44:52.747Z,23.07
2019-03-08T09:45:24.828Z,23.03
2019-03-08T09:45:56.867Z,22.99
2019-03-08T09:46:29.460Z,23.01
2019-03-08T09:47:01.512Z,23.01
2019-03-08T09:47:34.704Z,23.07
2019-03-08T09:48:06.816Z,23.06
2019-03-08T09:48:38.958Z,23.01
2019-03-08T09:49:20.365Z,22.97
2019-03-08T09:49:54.453Z,23.04
2019-03-08T09:50:26.615Z,23
2019-03-08T09:50:59.934Z,22.97
2019-03-08T09:52:51.428Z,22.94
2019-03-08T09:53:23.471Z,22.94
2019-03-08T09:55:15.055Z,22.97
2019-03-08T09:55:47.064Z,22.89
2019-03-08T09:56:19.090Z,23
2019-03-08T09:56:51.093Z,22.92
2019-03-08T09:57:23.132Z,22.91
2019-03-08T09:57:55.194Z,22.91
2019-03-08T09:58:27.196Z,23
2019-03-08T09:59:00.471Z,22.97
2019-03-08T10:00:52.035Z,22.97
2019-03-08T10:01:24.033Z,22.94
2019-03-08T10:01:56.067Z,22.99
2019-03-08T10:02:28.639Z,23
2019-03-08T10:03:00.623Z,22.99
2019-03-08T10:03:36.420Z,22.97
2019-03-08T10:04:08.440Z,22.97
2019-03-08T10:05:05.342Z,22.94
2019-03-08T10:05:37.946Z,22.96
2019-03-08T10:06:12.983Z,22.91
2019-03-08T10:06:45.061Z,22.94
2019-03-08T10:07:17.077Z,22.99
2019-03-08T10:07:49.457Z,22.96
2019-03-08T10:08:21.514Z,23
2019-03-08T10:08:53.583Z,23
2019-03-08T10:09:28.092Z,23.01
2019-03-08T10:10:00.126Z,23.04
2019-03-08T10:10:32.345Z,23.06
2019-03-08T10:11:04.316Z,23
2019-03-08T10:11:36.912Z,23.1
2019-03-08T10:12:08.927Z,23.03
2019-03-08T10:12:42.934Z,23.06
2019-03-08T10:13:14.939Z,23.12
2019-03-08T10:13:48.045Z,23.04
2019-03-08T10:14:20.105Z,23.06
2019-03-08T10:14:52.283Z,23.07
2019-03-08T10:15:24.641Z,23.01
2019-03-08T10:15:57.431Z,23.14
2019-03-08T10:17:48.938Z,23.06
2019-03-08T10:19:40.227Z,23.16
2019-03-08T10:20:12.267Z,23.26
2019-03-08T10:20:45.215Z,23.25
2019-03-08T10:21:17.191Z,23.21
2019-03-08T10:21:50.575Z,23.26
2019-03-08T10:22:24.622Z,23.26
2019-03-08T10:22:57.668Z,23.28
2019-03-08T10:23:29.935Z,23.32
2019-03-08T10:24:02.948Z,23.38
2019-03-08T10:24:35.057Z,23.35
2019-03-08T10:25:07.065Z,23.38
2019-03-08T10:25:39.087Z,23.44
2019-03-08T10:27:37.722Z,23.41
2019-03-08T10:28:10.187Z,23.38
2019-03-08T10:28:43.251Z,23.48
2019-03-08T10:29:15.287Z,23.42
2019-03-08T10:29:47.266Z,23.44
2019-03-08T10:30:19.259Z,23.45
2019-03-08T10:30:51.274Z,23.5
2019-03-08T10:31:23.299Z,23.53
2019-03-08T10:31:55.318Z,23.52
2019-03-08T10:32:36.765Z,23.53
2019-03-08T10:33:10.212Z,23.53
2019-03-08T10:33:46.376Z,23.53
2019-03-08T10:34:18.588Z,23.53
2019-03-08T10:34:50.588Z,23.56
2019-03-08T10:36:42.945Z,23.63
2019-03-08T10:37:15.281Z,23.7
2019-03-08T10:37:47.345Z,23.7
2019-03-08T10:38:22.497Z,23.66
2019-03-08T10:38:54.923Z,23.75
2019-03-08T10:40:46.139Z,23.87
2019-03-08T10:41:19.357Z,23.87
2019-03-08T10:41:51.372Z,23.99
2019-03-08T10:42:24.286Z,23.93
2019-03-08T10:42:56.308Z,23.96
2019-03-08T10:43:30.514Z,23.93
2019-03-08T10:44:08.835Z,24.02
2019-03-08T10:44:47.160Z,24.09
2019-03-08T10:45:19.162Z,24.07
2019-03-08T10:45:52.121Z,24.11
2019-03-08T10:46:24.171Z,24.08
2019-03-08T10:46:56.845Z,24.17
2019-03-08T10:47:28.837Z,24.21
2019-03-08T10:48:02.822Z,24.19
2019-03-08T10:48:34.828Z,24.26
2019-03-08T10:50:27.715Z,24.39
2019-03-08T10:50:59.712Z,24.42
2019-03-08T10:51:56.367Z,24.46
2019-03-08T10:52:28.388Z,24.42
2019-03-08T10:53:00.376Z,24.56
2019-03-08T10:53:32.357Z,24.63
2019-03-08T10:54:04.356Z,24.58
2019-03-08T10:54:36.355Z,24.69
2019-03-08T10:57:47.596Z,24.77
2019-03-08T10:58:19.595Z,24.77
2019-03-08T10:58:51.605Z,24.75
2019-03-08T11:00:43.767Z,24.96
2019-03-08T11:01:15.784Z,25.02
2019-03-08T11:01:48.170Z,25.02
2019-03-08T11:02:20.194Z,25.02
2019-03-08T11:02:52.206Z,25.15
2019-03-08T11:04:45.697Z,25.37
2019-03-08T11:05:18.579Z,25.42
2019-03-08T11:05:50.620Z,25.47
2019-03-08T11:06:23.925Z,25.44
2019-03-08T11:06:55.947Z,25.49
2019-03-08T11:07:27.969Z,25.49
2019-03-08T11:08:00.009Z,25.57
2019-03-08T11:08:32.132Z,25.56
2019-03-08T11:09:04.153Z,25.56
2019-03-08T11:10:55.791Z,25.67
2019-03-08T11:11:37.281Z,25.7
2019-03-08T11:12:34.292Z,25.69
2019-03-08T11:13:06.317Z,25.79
2019-03-08T11:13:43.136Z,25.76
2019-03-08T11:14:15.317Z,25.74
2019-03-08T11:14:47.345Z,25.78
2019-03-08T11:15:24.326Z,25.79
2019-03-08T11:15:56.702Z,25.86
2019-03-08T11:16:28.719Z,25.84
2019-03-08T11:17:00.749Z,25.86
2019-03-08T11:17:32.794Z,25.86
2019-03-08T11:18:04.848Z,25.99
2019-03-08T11:18:36.869Z,26
2019-03-08T11:19:09.145Z,25.97
2019-03-08T11:19:41.211Z,26.04
2019-03-08T11:20:13.296Z,25.97
2019-03-08T11:20:46.428Z,26.09
2019-03-08T11:21:19.219Z,26.11
2019-03-08T11:21:51.251Z,26.06
2019-03-08T11:22:24.260Z,26.12
2019-03-08T11:22:56.281Z,26.23
2019-03-08T11:23:28.326Z,26.27
2019-03-08T11:24:00.348Z,26.38
2019-03-08T11:24:32.373Z,26.35
2019-03-08T11:25:07.933Z,26.3
2019-03-08T11:25:40.536Z,26.39
2019-03-08T11:26:12.568Z,26.42
2019-03-08T11:28:04.747Z,26.54
2019-03-08T11:28:36.785Z,26.63
2019-03-08T11:29:08.850Z,26.68
2019-03-08T11:29:40.900Z,26.69
2019-03-08T11:31:32.622Z,26.76
2019-03-08T11:32:06.579Z,26.81
2019-03-08T11:32:39.155Z,26.87
2019-03-08T11:33:11.203Z,26.78
2019-03-08T11:33:43.257Z,26.93
2019-03-08T11:34:15.264Z,26.96
2019-03-08T11:36:06.593Z,27.12
2019-03-08T11:36:38.605Z,27.08
2019-03-08T11:37:10.691Z,27.12
2019-03-08T11:39:02.432Z,27.12
2019-03-08T11:39:59.297Z,27.05
2019-03-08T11:40:31.350Z,27.01
2019-03-08T11:41:03.393Z,27
2019-03-08T11:41:35.441Z,27
2019-03-08T11:42:07.474Z,26.99
2019-03-08T11:42:39.499Z,26.96
2019-03-08T11:43:11.513Z,26.96
2019-03-08T11:43:43.537Z,26.96
2019-03-08T11:44:15.581Z,26.87
2019-03-08T11:44:47.770Z,26.86
2019-03-08T11:45:19.777Z,26.9
2019-03-08T11:47:11.002Z,26.75
2019-03-08T11:49:02.419Z,26.71
2019-03-08T11:50:54.136Z,26.47
2019-03-08T11:51:26.127Z,26.5
2019-03-08T11:51:58.157Z,26.44
2019-03-08T11:52:30.122Z,26.44
2019-03-08T11:53:02.427Z,26.32
2019-03-08T11:53:34.989Z,26.39
2019-03-08T11:54:06.989Z,26.38
2019-03-08T11:54:40.879Z,26.32
2019-03-08T11:55:13.107Z,26.23
2019-03-08T11:55:45.132Z,26.3
2019-03-08T11:56:17.120Z,26.16
2019-03-08T11:56:55.788Z,26.11
2019-03-08T11:57:28.267Z,26.11
2019-03-08T11:58:00.349Z,26.12
2019-03-08T11:58:33.252Z,26.03
2019-03-08T11:59:11.687Z,26
2019-03-08T11:59:43.693Z,25.97
2019-03-08T12:00:15.688Z,25.88
2019-03-08T12:00:47.705Z,25.93
2019-03-08T12:01:19.929Z,25.91
2019-03-08T12:03:11.425Z,25.79
2019-03-08T12:03:43.451Z,25.71
2019-03-08T12:04:15.443Z,25.76
2019-03-08T12:04:47.473Z,25.66
2019-03-08T12:05:19.497Z,25.67
2019-03-08T12:05:51.526Z,25.66
2019-03-08T12:06:23.661Z,25.52
2019-03-08T12:06:56.727Z,25.56
2019-03-08T12:07:28.757Z,25.56
2019-03-08T12:08:01.176Z,25.54
2019-03-08T12:08:33.188Z,25.41
2019-03-08T12:09:05.236Z,25.37
2019-03-08T12:10:56.620Z,25.34
2019-03-08T12:11:29.528Z,25.3
2019-03-08T12:12:01.517Z,25.23
2019-03-08T12:13:52.824Z,25.17
2019-03-08T12:14:24.866Z,25.08
2019-03-08T12:14:57.694Z,25.08
2019-03-08T12:15:29.705Z,25.07
2019-03-08T12:16:03.048Z,25.02
2019-03-08T12:16:35.061Z,25.05
2019-03-08T12:17:07.066Z,25
2019-03-08T12:17:39.087Z,25.02
2019-03-08T12:18:11.075Z,24.94
2019-03-08T12:18:43.084Z,24.93
2019-03-08T12:19:15.074Z,24.92
2019-03-08T12:19:47.084Z,24.93
2019-03-08T12:20:19.524Z,24.9
2019-03-08T12:20:52.723Z,24.87
2019-03-08T12:21:25.690Z,24.74
2019-03-08T12:21:58.784Z,24.77
2019-03-08T12:22:30.759Z,24.77
2019-03-08T12:23:02.811Z,24.8
2019-03-08T12:23:34.854Z,24.7
2019-03-08T12:24:06.977Z,24.71
2019-03-08T12:24:38.958Z,24.63
2019-03-08T12:25:36.027Z,24.64
2019-03-08T12:26:08.049Z,24.56
2019-03-08T12:26:40.069Z,24.66
2019-03-08T12:27:12.091Z,24.64
2019-03-08T12:29:04.551Z,24.59
2019-03-08T12:29:36.568Z,24.46
2019-03-08T12:30:09.262Z,24.46
2019-03-08T12:32:00.632Z,24.44
2019-03-08T12:33:52.267Z,24.4
2019-03-08T12:34:24.320Z,24.4
2019-03-08T12:34:56.314Z,24.44
2019-03-08T12:35:53.648Z,24.4
2019-03-08T12:37:45.940Z,24.34
2019-03-08T12:38:17.970Z,24.42
2019-03-08T12:38:49.995Z,24.37
2019-03-08T12:40:41.257Z,24.37
2019-03-08T12:42:33.153Z,24.42
2019-03-08T12:43:08.165Z,24.33
2019-03-08T12:43:40.478Z,24.42
2019-03-08T12:44:12.486Z,24.42
2019-03-08T12:44:44.488Z,24.42
2019-03-08T12:45:16.505Z,24.52
2019-03-08T12:45:48.506Z,24.51
2019-03-08T12:46:20.508Z,24.66
2019-03-08T12:46:53.673Z,24.63
2019-03-08T12:47:25.673Z,24.82
2019-03-08T12:47:58.082Z,25
2019-03-08T12:48:30.080Z,25.2
2019-03-08T12:49:02.093Z,25.34
2019-03-08T12:49:34.097Z,25.44
2019-03-08T12:50:06.115Z,25.66
2019-03-08T12:50:38.169Z,25.75
2019-03-08T12:51:10.194Z,25.81
2019-03-08T12:51:42.187Z,25.93
2019-03-08T12:52:14.207Z,25.97
2019-03-08T12:52:46.214Z,26.15
2019-03-08T12:54:37.661Z,26.5
2019-03-08T12:55:09.666Z,26.59
2019-03-08T12:55:41.695Z,26.67
2019-03-08T12:57:33.359Z,27.09
2019-03-08T12:58:05.419Z,27.23
2019-03-08T12:58:37.429Z,27.27
2019-03-08T12:59:09.455Z,27.43
2019-03-08T12:59:41.440Z,27.49
2019-03-08T13:00:13.459Z,27.57
2019-03-08T13:00:45.478Z,27.72
2019-03-08T13:01:18.563Z,27.86
2019-03-08T13:01:50.574Z,27.99
2019-03-08T13:02:22.589Z,28.08
2019-03-08T13:05:33.450Z,28.63
2019-03-08T13:06:05.490Z,28.72
2019-03-08T13:07:59.037Z,29.01
2019-03-08T13:08:31.713Z,29.08
2019-03-08T13:09:04.271Z,29.06
2019-03-08T13:09:37.115Z,29.23
2019-03-08T13:10:09.154Z,29.15
2019-03-08T13:10:41.234Z,29.05
2019-03-08T13:11:13.250Z,28.97
2019-03-08T13:11:45.286Z,29.03
2019-03-08T13:12:17.313Z,29.13
2019-03-08T13:12:49.363Z,29.14
2019-03-08T13:13:21.385Z,29.06
2019-03-08T13:13:53.433Z,29.01
2019-03-08T13:14:25.447Z,29.08
2019-03-08T13:14:57.577Z,29.23
2019-03-08T13:16:49.667Z,29.14
2019-03-08T13:17:21.675Z,29.23
2019-03-08T13:17:53.700Z,29.14
2019-03-08T13:18:25.681Z,29.13
2019-03-08T13:20:17.377Z,29.24
2019-03-08T13:20:49.397Z,29.23
2019-03-08T13:21:21.407Z,29.39
2019-03-08T13:21:53.425Z,29.39
2019-03-08T13:22:25.461Z,29.47
2019-03-08T13:22:57.446Z,29.54
2019-03-08T13:24:48.977Z,29.61
2019-03-08T13:25:21.001Z,29.52
2019-03-08T13:25:53.026Z,29.52
2019-03-08T13:26:25.074Z,29.52
2019-03-08T13:26:57.075Z,29.55
2019-03-08T13:27:29.092Z,29.6
2019-03-08T13:28:01.121Z,29.82
2019-03-08T13:28:33.132Z,29.89
2019-03-08T13:29:06.202Z,30.02
2019-03-08T13:29:38.233Z,30.09
2019-03-08T13:30:10.512Z,30.18
2019-03-08T13:32:02.179Z,30.57
2019-03-08T13:32:34.692Z,30.66
2019-03-08T13:34:25.956Z,30.94
2019-03-08T13:34:58.019Z,30.86
2019-03-08T13:35:30.059Z,31.06
2019-03-08T13:36:02.080Z,31.13
2019-03-08T13:36:34.107Z,31.18
2019-03-08T13:37:07.016Z,31.26
2019-03-08T13:37:39.025Z,31.31
2019-03-08T13:38:11.202Z,31.18
2019-03-08T13:38:43.276Z,31.04
2019-03-08T13:39:15.316Z,30.89
2019-03-08T13:39:47.347Z,30.82
2019-03-08T13:40:19.400Z,30.73
2019-03-08T13:40:51.456Z,30.64
2019-03-08T13:41:23.482Z,30.66
2019-03-08T13:41:55.530Z,30.56
2019-03-08T13:42:27.537Z,30.39
2019-03-08T13:42:59.584Z,30.4
2019-03-08T13:43:31.585Z,30.34
2019-03-08T13:44:03.602Z,30.28
2019-03-08T13:44:35.623Z,30.4
2019-03-08T13:45:08.600Z,30.34
2019-03-08T13:45:40.632Z,30.37
2019-03-08T13:46:13.309Z,30.44
2019-03-08T13:46:45.398Z,30.35
2019-03-08T13:47:17.445Z,30.16
2019-03-08T13:47:49.477Z,30.11
2019-03-08T13:48:21.502Z,29.98
2019-03-08T13:48:53.529Z,29.85
2019-03-08T13:49:25.560Z,29.77
2019-03-08T13:49:57.609Z,29.7
2019-03-08T13:50:29.624Z,29.63
2019-03-08T13:51:01.614Z,29.58
2019-03-08T13:51:33.653Z,29.6
2019-03-08T13:52:05.685Z,29.75
2019-03-08T13:52:37.692Z,29.82
2019-03-08T13:53:09.959Z,29.76
2019-03-08T13:53:41.986Z,29.77
2019-03-08T13:54:14.920Z,29.6
2019-03-08T13:54:46.948Z,29.57
2019-03-08T13:55:18.971Z,29.48
2019-03-08T13:55:51.000Z,29.36
2019-03-08T13:56:23.041Z,29.29
2019-03-08T13:56:55.107Z,29.18
2019-03-08T13:57:27.195Z,29.13
2019-03-08T13:57:59.828Z,29.08
2019-03-08T13:58:32.048Z,28.98
2019-03-08T13:59:04.609Z,28.95
2019-03-08T13:59:36.615Z,28.82
2019-03-08T14:00:08.859Z,28.79
2019-03-08T14:00:40.931Z,28.78
2019-03-08T14:01:12.963Z,28.7
2019-03-08T14:01:45.011Z,28.64
2019-03-08T14:02:18.152Z,28.55
2019-03-08T14:02:51.126Z,28.54
2019-03-08T14:03:24.500Z,28.49
2019-03-08T14:03:56.518Z,28.45
2019-03-08T14:04:29.097Z,28.33
2019-03-08T14:05:01.153Z,28.31
2019-03-08T14:05:33.618Z,28.41
2019-03-08T14:06:05.953Z,28.55
2019-03-08T14:06:37.990Z,28.64
2019-03-08T14:07:10.028Z,28.73
2019-03-08T14:07:42.061Z,28.82
2019-03-08T14:08:14.731Z,28.85
2019-03-08T14:08:48.342Z,28.8
2019-03-08T14:09:20.728Z,28.75
2019-03-08T14:09:53.150Z,28.58
2019-03-08T14:10:25.186Z,28.58
2019-03-08T14:10:57.383Z,28.49
2019-03-08T14:11:29.402Z,28.36
2019-03-08T14:12:01.471Z,28.3
2019-03-08T14:12:34.087Z,28.33
2019-03-08T14:13:07.177Z,28.17
2019-03-08T14:13:42.158Z,28.03
2019-03-08T14:14:14.519Z,28.03
2019-03-08T14:14:47.927Z,28.02
2019-03-08T14:15:19.974Z,27.9
2019-03-08T14:15:52.032Z,27.89
2019-03-08T14:16:24.083Z,27.76
2019-03-08T14:16:56.201Z,27.72
2019-03-08T14:17:28.406Z,27.59
2019-03-08T14:18:02.072Z,27.55
2019-03-08T14:18:35.130Z,27.46
2019-03-08T14:19:07.639Z,27.38
2019-03-08T14:19:40.732Z,27.36
2019-03-08T14:20:13.431Z,27.36
2019-03-08T14:20:45.723Z,27.24
2019-03-08T14:21:18.590Z,27.26
2019-03-08T14:21:51.359Z,27.05
2019-03-08T14:22:23.382Z,27
2019-03-08T14:22:55.492Z,26.91
2019-03-08T14:23:28.333Z,26.87
2019-03-08T14:24:00.398Z,26.87
2019-03-08T14:24:32.450Z,26.79
2019-03-08T14:25:05.470Z,26.74
2019-03-08T14:25:37.750Z,26.61
2019-03-08T14:26:13.383Z,26.53
2019-03-08T14:26:46.640Z,26.52
2019-03-08T14:27:18.923Z,26.38
2019-03-08T14:27:51.759Z,26.38
2019-03-08T14:28:24.576Z,26.37
2019-03-08T14:28:58.177Z,26.32
2019-03-08T14:29:36.647Z,26.32
2019-03-08T14:30:13.181Z,26.19
2019-03-08T14:30:46.190Z,26.19
2019-03-08T14:31:18.222Z,26.24
2019-03-08T14:31:50.371Z,26.35
2019-03-08T14:32:25.254Z,26.42
2019-03-08T14:33:01.500Z,26.6
2019-03-08T14:33:38.069Z,26.86
2019-03-08T14:34:16.663Z,27
2019-03-08T14:34:49.641Z,27.24
2019-03-08T14:35:29.564Z,27.3
2019-03-08T14:36:05.980Z,27.38
2019-03-08T14:36:43.071Z,27.57
2019-03-08T14:37:19.782Z,27.68
2019-03-08T14:37:55.762Z,27.75
2019-03-08T14:38:31.399Z,27.91
2019-03-08T14:39:07.881Z,28.02
2019-03-08T14:39:43.949Z,28.17
2019-03-08T14:40:20.466Z,28.24
2019-03-08T14:40:57.400Z,28.24
2019-03-08T14:41:31.803Z,28.43
2019-03-08T14:42:05.318Z,28.46
2019-03-08T14:42:40.305Z,28.65
2019-03-08T14:43:16.899Z,28.72
2019-03-08T14:43:52.406Z,28.68
2019-03-08T14:44:29.781Z,28.61
2019-03-08T14:45:07.604Z,28.49
2019-03-08T14:45:44.419Z,28.49
2019-03-08T14:46:20.959Z,28.46
2019-03-08T14:46:56.357Z,28.67
2019-03-08T14:47:33.190Z,28.72
2019-03-08T14:48:09.459Z,28.83
2019-03-08T14:48:46.262Z,28.92
2019-03-08T14:49:22.358Z,28.95
2019-03-08T14:49:59.137Z,29.08
2019-03-08T14:50:35.378Z,29.06
2019-03-08T14:51:09.239Z,29.08
2019-03-08T14:51:48.164Z,29.13
2019-03-08T14:52:21.730Z,29.11
2019-03-08T14:52:56.652Z,29.01
2019-03-08T14:53:32.632Z,28.95
2019-03-08T14:54:09.604Z,28.83
2019-03-08T14:54:46.329Z,28.86
2019-03-08T14:55:22.533Z,28.9
2019-03-08T14:55:59.013Z,28.85
2019-03-08T14:56:35.430Z,28.83
2019-03-08T14:57:09.446Z,28.94
2019-03-08T14:58:00.383Z,28.92
2019-03-08T14:58:36.358Z,29.01
2019-03-08T14:59:15.264Z,29.03
2019-03-08T14:59:49.206Z,29.1
2019-03-08T15:00:28.967Z,29.02
2019-03-08T15:01:05.772Z,29.08
2019-03-08T15:01:39.887Z,29.06
2019-03-08T15:02:14.571Z,29.05
2019-03-08T15:02:48.495Z,29.11
2019-03-08T15:03:23.670Z,29.05
2019-03-08T15:03:57.798Z,29.05
2019-03-08T15:04:33.111Z,29.03
2019-03-08T15:05:11.039Z,28.95
2019-03-08T15:05:54.723Z,28.95
2019-03-08T15:06:29.929Z,28.92
2019-03-08T15:07:04.567Z,28.98
2019-03-08T15:07:41.028Z,28.82
2019-03-08T15:08:17.694Z,28.82
2019-03-08T15:08:54.984Z,28.83
2019-03-08T15:09:30.612Z,28.79
2019-03-08T15:10:06.067Z,28.72
2019-03-08T15:10:40.590Z,28.67
2019-03-08T15:11:23.489Z,28.53
2019-03-08T15:11:59.479Z,28.54
2019-03-08T15:12:32.964Z,28.45
2019-03-08T15:13:23.940Z,28.41
2019-03-08T15:13:58.950Z,28.31
2019-03-08T15:14:33.798Z,28.31
2019-03-08T15:15:11.228Z,28.24
2019-03-08T15:15:44.505Z,28.11
2019-03-08T15:16:17.658Z,28.06
2019-03-08T15:16:49.653Z,28.02
2019-03-08T15:17:21.668Z,27.94
2019-03-08T15:17:55.200Z,27.91
2019-03-08T15:18:29.474Z,27.79
2019-03-08T15:19:03.679Z,27.71
2019-03-08T15:19:40.171Z,27.59
2019-03-08T15:20:15.228Z,27.59
2019-03-08T15:20:48.224Z,27.45
2019-03-08T15:21:20.234Z,27.51
2019-03-08T15:21:52.262Z,27.38
2019-03-08T15:22:24.262Z,27.31
2019-03-08T15:22:56.314Z,27.21
2019-03-08T15:23:28.312Z,27.12
2019-03-08T15:24:00.316Z,27.11
2019-03-08T15:24:38.209Z,27.01
2019-03-08T15:25:12.467Z,26.96
2019-03-08T15:25:48.890Z,26.87
2019-03-08T15:26:22.180Z,26.75
2019-03-08T15:26:54.182Z,26.67
2019-03-08T15:27:26.191Z,26.63
2019-03-08T15:27:58.206Z,26.6
2019-03-08T15:28:30.234Z,26.45
2019-03-08T15:29:02.253Z,26.39
2019-03-08T15:29:34.560Z,26.37
2019-03-08T15:30:07.501Z,26.37
2019-03-08T15:30:39.613Z,26.35
2019-03-08T15:31:11.707Z,26.22
2019-03-08T15:31:44.057Z,26.24
2019-03-08T15:32:16.310Z,26.11
2019-03-08T15:32:48.316Z,26.03
2019-03-08T15:33:21.358Z,25.96
2019-03-08T15:33:53.422Z,25.96
2019-03-08T15:34:26.395Z,25.97
2019-03-08T15:34:58.578Z,25.88
2019-03-08T15:35:30.740Z,25.85
2019-03-08T15:36:03.203Z,25.78
2019-03-08T15:36:35.487Z,25.76
2019-03-08T15:37:07.482Z,25.69
2019-03-08T15:37:44.076Z,25.7
2019-03-08T15:38:17.847Z,25.62
2019-03-08T15:38:58.075Z,25.54
2019-03-08T15:39:31.249Z,25.45
2019-03-08T15:40:03.771Z,25.38
2019-03-08T15:40:35.809Z,25.41
2019-03-08T15:41:07.826Z,25.34
2019-03-08T15:41:39.812Z,25.32
2019-03-08T15:42:11.903Z,25.29
2019-03-08T15:42:43.879Z,25.3
2019-03-08T15:43:15.902Z,25.07
2019-03-08T15:43:51.097Z,25.04
2019-03-08T15:44:24.654Z,24.97
2019-03-08T15:45:01.681Z,25.07
2019-03-08T15:45:39.929Z,24.96
2019-03-08T15:46:18.529Z,24.94
2019-03-08T15:46:59.100Z,24.86
2019-03-08T15:47:32.453Z,24.74
2019-03-08T15:48:10.845Z,24.78
2019-03-08T15:48:49.130Z,24.59
2019-03-08T15:49:26.545Z,24.59
2019-03-08T15:50:04.451Z,24.52
2019-03-08T15:50:42.724Z,24.44
2019-03-08T15:51:20.797Z,24.48
2019-03-08T15:51:59.822Z,24.4
2019-03-08T15:52:37.430Z,24.33
2019-03-08T15:53:09.453Z,24.27
2019-03-08T15:53:41.451Z,24.22
2019-03-08T15:54:13.456Z,24.27
2019-03-08T15:54:45.481Z,24.15
2019-03-08T15:55:17.494Z,24.11
2019-03-08T15:55:52.730Z,24.08
2019-03-08T15:56:25.098Z,24.07
2019-03-08T15:56:57.090Z,24.14
2019-03-08T15:57:29.074Z,24.08
2019-03-08T15:58:01.093Z,23.92
2019-03-08T15:58:33.108Z,23.97
2019-03-08T15:59:05.109Z,23.87
2019-03-08T15:59:37.125Z,23.9
2019-03-08T16:00:09.124Z,23.87
2019-03-08T16:00:41.154Z,23.82
2019-03-08T16:01:13.221Z,23.72
2019-03-08T16:01:45.627Z,23.75
2019-03-08T16:02:17.623Z,23.75
2019-03-08T16:02:50.819Z,23.7
2019-03-08T16:03:25.563Z,23.63
2019-03-08T16:04:08.045Z,23.6
2019-03-08T16:04:45.669Z,23.6
2019-03-08T16:05:23.735Z,23.52
2019-03-08T16:06:02.879Z,23.62
2019-03-08T16:06:39.738Z,23.45
2019-03-08T16:07:18.880Z,23.45
2019-03-08T16:08:01.624Z,23.41
2019-03-08T16:08:39.251Z,23.41
2019-03-08T16:09:12.497Z,23.37
2019-03-08T16:09:44.507Z,23.34
2019-03-08T16:10:16.495Z,23.26
2019-03-08T16:10:50.820Z,23.24
2019-03-08T16:11:22.815Z,23.25
2019-03-08T16:11:55.872Z,23.18
2019-03-08T16:12:27.860Z,23.14
2019-03-08T16:13:01.943Z,23.12
2019-03-08T16:13:34.679Z,23.06
2019-03-08T16:14:08.890Z,23.07
2019-03-08T16:14:41.112Z,23.04
2019-03-08T16:15:13.124Z,23.04
2019-03-08T16:15:45.136Z,23.04
2019-03-08T16:16:17.128Z,23.03
2019-03-08T16:16:49.115Z,22.88
2019-03-08T16:17:21.115Z,22.94
2019-03-08T16:17:53.124Z,22.94
2019-03-08T16:18:25.171Z,22.86
2019-03-08T16:18:57.177Z,22.82
2019-03-08T16:19:29.177Z,22.85
2019-03-08T16:20:02.789Z,22.82
2019-03-08T16:20:37.202Z,22.84
2019-03-08T16:21:13.043Z,22.79
2019-03-08T16:21:46.645Z,22.73
2019-03-08T16:22:24.613Z,22.7
2019-03-08T16:23:02.440Z,22.6
2019-03-08T16:23:39.787Z,22.64
2019-03-08T16:24:11.784Z,22.64
2019-03-08T16:24:43.790Z,22.55
2019-03-08T16:25:15.802Z,22.59
2019-03-08T16:25:48.799Z,22.55
2019-03-08T16:26:21.176Z,22.48
2019-03-08T16:26:58.659Z,22.51
2019-03-08T16:27:35.148Z,22.52
2019-03-08T16:28:10.781Z,22.46
2019-03-08T16:28:42.921Z,22.45
2019-03-08T16:29:14.935Z,22.42
2019-03-08T16:29:46.930Z,22.44
2019-03-08T16:30:18.928Z,22.38
2019-03-08T16:30:50.916Z,22.41
2019-03-08T16:31:25.501Z,22.34
2019-03-08T16:32:00.639Z,22.42
2019-03-08T16:32:32.657Z,22.36
2019-03-08T16:33:04.720Z,22.31
2019-03-08T16:33:36.737Z,22.31
2019-03-08T16:34:08.743Z,22.31
2019-03-08T16:34:40.774Z,22.27
2019-03-08T16:35:12.777Z,22.29
2019-03-08T16:35:45.717Z,22.26
2019-03-08T16:36:17.712Z,22.23
2019-03-08T16:36:51.001Z,22.29
2019-03-08T16:37:23.051Z,22.27
2019-03-08T16:37:55.055Z,22.26
2019-03-08T16:38:27.082Z,22.23
2019-03-08T16:38:59.897Z,22.11
2019-03-08T16:39:31.896Z,22.09
2019-03-08T16:40:03.929Z,22.18
2019-03-08T16:40:38.233Z,22.29
2019-03-08T16:41:10.290Z,22.14
2019-03-08T16:41:42.288Z,22.12
2019-03-08T16:42:14.278Z,22.08
2019-03-08T16:42:46.289Z,22.14
2019-03-08T16:43:18.295Z,22.16
2019-03-08T16:43:50.324Z,22.08
2019-03-08T16:44:22.437Z,22.07
2019-03-08T16:44:54.443Z,22.11
2019-03-08T16:45:26.475Z,22.12
2019-03-08T16:45:58.490Z,22.09
2019-03-08T16:46:30.496Z,22.11
2019-03-08T16:47:03.459Z,22.07